PWSweather.com
Personal Weather Stations
Station Observations
KTXDECATUR
Wildwood, Decatur, TX 76234

WildwoodDecatur, TX 76234

Lat: 33.2634, Lon: -97.6651

Elevation: 800

Station Type: Davis Vantage Pro 2

http://weather.wildwoodnaturist.com

Latest ConditionsUpdated 7:30:01 PM CDT Sunday, Mar 26, 2017
Currently Today's Max Today's Min Today's Average
Temperature 68.8°F20.4°C 81.8°F27.7°C 47.8°F8.8°C 64.2°F17.9°C
Dew Point 64.4°F18.0°C 66.0°F18.9°C 43.7°F6.5°C 55.2°F12.9°C
Winds 1.2 mph ESE1.9 kmh ESE 18.4 mph S29.6 kmh S - 6.1 mph 9.8 kmh
Wind Gusts 3.5 mph5.6 kmh 25.3 mph40.7 kmh - -
Humidity 86% 88% 55% 74%
Pressure 29.66 in1004.4 mb 29.87 in1011.5 mb 29.61 in1002.7 mb -
Precipitation - 0.02 in0.5 mm - -
Hour Temp Dew Point Humidity Winds Wind Gusts Pressure Precip Precip Rate Daily Precip Total
07:30 PM 68.8°F20.4°C 64.4°F18.0°C 86% 1.2 mph ESE1.9 kmh ESE 3.5 mph5.6 kmh 29.66 in1004.4 mb - 0.00 in0.0 mm 0.02 in0.5 mm
07:20 PM 68.8°F20.4°C 64.1°F17.8°C 85% Calm Calm 2.3 mph3.7 kmh 29.66 in1004.4 mb - 0.00 in0.0 mm 0.02 in0.5 mm
07:15 PM 68.7°F20.4°C 64.3°F17.9°C 86% 6.9 mph NNE11.1 kmh NNE 9.2 mph14.8 kmh 29.66 in1004.4 mb - 0.00 in0.0 mm 0.02 in0.5 mm
07:10 PM 68.9°F20.5°C 64.5°F18.1°C 86% 9.2 mph NW14.8 kmh NW 18.4 mph29.6 kmh 29.67 in1004.7 mb - 0.01 in0.3 mm 0.02 in0.5 mm
07:00 PM 69.1°F20.6°C 64.0°F17.8°C 84% 5.8 mph SSE9.3 kmh SSE 11.5 mph18.5 kmh 29.66 in1004.4 mb - 0.02 in0.5 mm 0.02 in0.5 mm
06:50 PM 69.6°F20.9°C 63.5°F17.5°C 81% 8.1 mph ESE13.0 kmh ESE 13.8 mph22.2 kmh 29.64 in1003.7 mb - 0.00 in0.0 mm 0.00 in0.0 mm
06:45 PM 69.8°F21.0°C 63.4°F17.4°C 80% 4.6 mph SE7.4 kmh SE 6.9 mph11.1 kmh 29.63 in1003.4 mb - 0.00 in0.0 mm 0.00 in0.0 mm
06:40 PM 70.3°F21.3°C 63.5°F17.5°C 79% 4.6 mph SE7.4 kmh SE 9.2 mph14.8 kmh 29.63 in1003.4 mb - 0.00 in0.0 mm 0.00 in0.0 mm
06:30 PM 73.5°F23.1°C 65.5°F18.6°C 76% 11.5 mph SSE18.5 kmh SSE 17.3 mph27.8 kmh 29.64 in1003.7 mb - 0.00 in0.0 mm 0.00 in0.0 mm
06:20 PM 76.5°F24.7°C 65.9°F18.8°C 70% 8.1 mph S13.0 kmh S 8.1 mph13.0 kmh 29.64 in1003.7 mb - 0.00 in0.0 mm 0.00 in0.0 mm
06:15 PM 77.4°F25.2°C 66.0°F18.9°C 68% 6.9 mph SSE11.1 kmh SSE 9.2 mph14.8 kmh 29.62 in1003.0 mb - 0.00 in0.0 mm 0.00 in0.0 mm
06:10 PM 78.0°F25.6°C 65.3°F18.5°C 65% 5.8 mph SE9.3 kmh SE 9.2 mph14.8 kmh 29.61 in1002.7 mb - 0.00 in0.0 mm 0.00 in0.0 mm
06:00 PM 77.9°F25.5°C 64.3°F17.9°C 63% 8.1 mph SSE13.0 kmh SSE 13.8 mph22.2 kmh 29.62 in1003.0 mb - 0.00 in0.0 mm 0.00 in0.0 mm
05:50 PM 77.9°F25.5°C 64.3°F17.9°C 63% 8.1 mph SE13.0 kmh SE 15.0 mph24.1 kmh 29.62 in1003.0 mb - 0.00 in0.0 mm 0.00 in0.0 mm
05:45 PM 78.0°F25.6°C 64.4°F18.0°C 63% 8.1 mph SE13.0 kmh SE 6.9 mph11.1 kmh 29.63 in1003.4 mb - 0.00 in0.0 mm 0.00 in0.0 mm
05:40 PM 78.3°F25.7°C 64.2°F17.9°C 62% 6.9 mph SE11.1 kmh SE 11.5 mph18.5 kmh 29.64 in1003.7 mb - 0.00 in0.0 mm 0.00 in0.0 mm
05:30 PM 79.3°F26.3°C 64.3°F17.9°C 60% 9.2 mph SE14.8 kmh SE 13.8 mph22.2 kmh 29.65 in1004.1 mb - 0.00 in0.0 mm 0.00 in0.0 mm
05:20 PM 80.2°F26.8°C 63.6°F17.6°C 57% 9.2 mph S14.8 kmh S 15.0 mph24.1 kmh 29.66 in1004.4 mb - 0.00 in0.0 mm 0.00 in0.0 mm
05:15 PM 80.5°F26.9°C 63.4°F17.4°C 56% 6.9 mph S11.1 kmh S 9.2 mph14.8 kmh 29.65 in1004.1 mb - 0.00 in0.0 mm 0.00 in0.0 mm
05:10 PM 80.6°F27.0°C 63.5°F17.5°C 56% 9.2 mph SSE14.8 kmh SSE 15.0 mph24.1 kmh 29.65 in1004.1 mb - 0.00 in0.0 mm 0.00 in0.0 mm
05:00 PM 81.0°F27.2°C 64.3°F17.9°C 57% 10.4 mph SE16.7 kmh SE 15.0 mph24.1 kmh 29.65 in1004.1 mb - 0.00 in0.0 mm 0.00 in0.0 mm
04:50 PM 81.2°F27.3°C 64.0°F17.8°C 56% 13.8 mph SSE22.2 kmh SSE 13.8 mph22.2 kmh 29.65 in1004.1 mb - 0.00 in0.0 mm 0.00 in0.0 mm
04:45 PM 81.3°F27.4°C 64.1°F17.8°C 56% 15.0 mph S24.1 kmh S 15.0 mph24.1 kmh 29.66 in1004.4 mb - 0.00 in0.0 mm 0.00 in0.0 mm
04:40 PM 81.2°F27.3°C 64.0°F17.8°C 56% 9.2 mph S14.8 kmh S 15.0 mph24.1 kmh 29.66 in1004.4 mb - 0.00 in0.0 mm 0.00 in0.0 mm
04:30 PM 80.9°F27.2°C 64.2°F17.9°C 57% 12.7 mph SSE20.4 kmh SSE 19.6 mph31.5 kmh 29.66 in1004.4 mb - 0.00 in0.0 mm 0.00 in0.0 mm
04:20 PM 80.7°F27.1°C 64.1°F17.8°C 57% 18.4 mph S29.6 kmh S 23.0 mph37.0 kmh 29.67 in1004.7 mb - 0.00 in0.0 mm 0.00 in0.0 mm
04:15 PM 80.6°F27.0°C 63.9°F17.7°C 57% 12.7 mph S20.4 kmh S 16.1 mph25.9 kmh 29.67 in1004.7 mb - 0.00 in0.0 mm 0.00 in0.0 mm
04:10 PM 80.5°F26.9°C 63.9°F17.7°C 57% 15.0 mph S24.1 kmh S 18.4 mph29.6 kmh 29.68 in1005.1 mb - 0.00 in0.0 mm 0.00 in0.0 mm
04:00 PM 80.6°F27.0°C 64.5°F18.1°C 58% 9.2 mph S14.8 kmh S 13.8 mph22.2 kmh 29.68 in1005.1 mb - 0.00 in0.0 mm 0.00 in0.0 mm
03:50 PM 81.0°F27.2°C 64.3°F17.9°C 57% 13.8 mph SSW22.2 kmh SSW 16.1 mph25.9 kmh 29.68 in1005.1 mb - 0.00 in0.0 mm 0.00 in0.0 mm
03:45 PM 80.7°F27.1°C 64.6°F18.1°C 58% 12.7 mph SSE20.4 kmh SSE 16.1 mph25.9 kmh 29.68 in1005.1 mb - 0.00 in0.0 mm 0.00 in0.0 mm
03:40 PM 80.5°F26.9°C 64.9°F18.3°C 59% 10.4 mph S16.7 kmh S 12.7 mph20.4 kmh 29.68 in1005.1 mb - 0.00 in0.0 mm 0.00 in0.0 mm
03:30 PM 80.7°F27.1°C 64.1°F17.8°C 57% 13.8 mph S22.2 kmh S 17.3 mph27.8 kmh 29.68 in1005.1 mb - 0.00 in0.0 mm 0.00 in0.0 mm
03:20 PM 80.5°F26.9°C 64.4°F18.0°C 58% 12.7 mph SSW20.4 kmh SSW 12.7 mph20.4 kmh 29.69 in1005.4 mb - 0.00 in0.0 mm 0.00 in0.0 mm
03:15 PM 80.3°F26.8°C 64.6°F18.1°C 59% 11.5 mph SSE18.5 kmh SSE 20.7 mph33.3 kmh 29.69 in1005.4 mb - 0.00 in0.0 mm 0.00 in0.0 mm
03:10 PM 80.0°F26.7°C 64.4°F18.0°C 59% 9.2 mph SSE14.8 kmh SSE 19.6 mph31.5 kmh 29.70 in1005.8 mb - 0.00 in0.0 mm 0.00 in0.0 mm
03:00 PM 80.6°F27.0°C 64.5°F18.1°C 58% 8.1 mph S13.0 kmh S 19.6 mph31.5 kmh 29.70 in1005.8 mb - 0.00 in0.0 mm 0.00 in0.0 mm
02:50 PM 81.1°F27.3°C 65.4°F18.6°C 59% 13.8 mph S22.2 kmh S 20.7 mph33.3 kmh 29.71 in1006.1 mb - 0.00 in0.0 mm 0.00 in0.0 mm
02:45 PM 81.3°F27.4°C 64.6°F18.1°C 57% 11.5 mph S18.5 kmh S 15.0 mph24.1 kmh 29.70 in1005.8 mb - 0.00 in0.0 mm 0.00 in0.0 mm
02:40 PM 81.5°F27.5°C 64.8°F18.2°C 57% 12.7 mph S20.4 kmh S 16.1 mph25.9 kmh 29.71 in1006.1 mb - 0.00 in0.0 mm 0.00 in0.0 mm
02:30 PM 81.1°F27.3°C 64.4°F18.0°C 57% 10.4 mph S16.7 kmh S 18.4 mph29.6 kmh 29.70 in1005.8 mb - 0.00 in0.0 mm 0.00 in0.0 mm
02:20 PM 81.7°F27.6°C 64.0°F17.8°C 55% 10.4 mph S16.7 kmh S 16.1 mph25.9 kmh 29.70 in1005.8 mb - 0.00 in0.0 mm 0.00 in0.0 mm
02:15 PM 81.8°F27.7°C 64.6°F18.1°C 56% 10.4 mph SSE16.7 kmh SSE 16.1 mph25.9 kmh 29.70 in1005.8 mb - 0.00 in0.0 mm 0.00 in0.0 mm
02:10 PM 81.1°F27.3°C 63.9°F17.7°C 56% 11.5 mph S18.5 kmh S 20.7 mph33.3 kmh 29.71 in1006.1 mb - 0.00 in0.0 mm 0.00 in0.0 mm
02:00 PM 80.6°F27.0°C 64.0°F17.8°C 57% 13.8 mph SSE22.2 kmh SSE 19.6 mph31.5 kmh 29.71 in1006.1 mb - 0.00 in0.0 mm 0.00 in0.0 mm
01:50 PM 81.1°F27.3°C 63.4°F17.4°C 55% 13.8 mph S22.2 kmh S 20.7 mph33.3 kmh 29.71 in1006.1 mb - 0.00 in0.0 mm 0.00 in0.0 mm
01:45 PM 80.9°F27.2°C 64.7°F18.2°C 58% 11.5 mph S18.5 kmh S 16.1 mph25.9 kmh 29.71 in1006.1 mb - 0.00 in0.0 mm 0.00 in0.0 mm
01:40 PM 81.5°F27.5°C 63.8°F17.7°C 55% 11.5 mph S18.5 kmh S 21.9 mph35.2 kmh 29.72 in1006.4 mb - 0.00 in0.0 mm 0.00 in0.0 mm
01:30 PM 79.1°F26.2°C 64.0°F17.8°C 60% 9.2 mph SE14.8 kmh SE 15.0 mph24.1 kmh 29.73 in1006.8 mb - 0.00 in0.0 mm 0.00 in0.0 mm
01:20 PM 79.2°F26.2°C 64.1°F17.8°C 60% 17.3 mph SSE27.8 kmh SSE 21.9 mph35.2 kmh 29.73 in1006.8 mb - 0.00 in0.0 mm 0.00 in0.0 mm
01:15 PM 79.2°F26.2°C 63.6°F17.6°C 59% 15.0 mph SE24.1 kmh SE 21.9 mph35.2 kmh 29.73 in1006.8 mb - 0.00 in0.0 mm 0.00 in0.0 mm
01:10 PM 78.6°F25.9°C 63.6°F17.6°C 60% 17.3 mph SE27.8 kmh SE 19.6 mph31.5 kmh 29.74 in1007.1 mb - 0.00 in0.0 mm 0.00 in0.0 mm
01:00 PM 77.7°F25.4°C 62.7°F17.1°C 60% 13.8 mph SSE22.2 kmh SSE 25.3 mph40.7 kmh 29.74 in1007.1 mb - 0.00 in0.0 mm 0.00 in0.0 mm
12:50 PM 77.3°F25.2°C 63.7°F17.6°C 63% 16.1 mph SE25.9 kmh SE 17.3 mph27.8 kmh 29.75 in1007.5 mb - 0.00 in0.0 mm 0.00 in0.0 mm
12:45 PM 76.9°F24.9°C 63.3°F17.4°C 63% 15.0 mph SSE24.1 kmh SSE 21.9 mph35.2 kmh 29.75 in1007.5 mb - 0.00 in0.0 mm 0.00 in0.0 mm
12:40 PM 76.8°F24.9°C 64.1°F17.8°C 65% 15.0 mph SSE24.1 kmh SSE 23.0 mph37.0 kmh 29.76 in1007.8 mb - 0.00 in0.0 mm 0.00 in0.0 mm
12:30 PM 76.5°F24.7°C 65.2°F18.4°C 68% 11.5 mph SSE18.5 kmh SSE 12.7 mph20.4 kmh 29.76 in1007.8 mb - 0.00 in0.0 mm 0.00 in0.0 mm
12:20 PM 74.4°F23.6°C 64.0°F17.8°C 70% 12.7 mph SE20.4 kmh SE 13.8 mph22.2 kmh 29.77 in1008.1 mb - 0.00 in0.0 mm 0.00 in0.0 mm
12:15 PM 73.9°F23.3°C 63.9°F17.7°C 71% 11.5 mph SE18.5 kmh SE 13.8 mph22.2 kmh 29.77 in1008.1 mb - 0.00 in0.0 mm 0.00 in0.0 mm
12:10 PM 73.8°F23.2°C 63.4°F17.4°C 70% 5.8 mph SE9.3 kmh SE 13.8 mph22.2 kmh 29.78 in1008.5 mb - 0.00 in0.0 mm 0.00 in0.0 mm
12:00 PM 72.3°F22.4°C 63.9°F17.7°C 75% 9.2 mph SE14.8 kmh SE 13.8 mph22.2 kmh 29.79 in1008.8 mb - 0.00 in0.0 mm 0.00 in0.0 mm
11:50 AM 71.1°F21.7°C 62.8°F17.1°C 75% 10.4 mph S16.7 kmh S 12.7 mph20.4 kmh 29.80 in1009.1 mb - 0.00 in0.0 mm 0.00 in0.0 mm
11:45 AM 71.2°F21.8°C 62.9°F17.2°C 75% 8.1 mph SSE13.0 kmh SSE 9.2 mph14.8 kmh 29.80 in1009.1 mb - 0.00 in0.0 mm 0.00 in0.0 mm
11:40 AM 70.7°F21.5°C 62.8°F17.1°C 76% 11.5 mph SE18.5 kmh SE 12.7 mph20.4 kmh 29.81 in1009.5 mb - 0.00 in0.0 mm 0.00 in0.0 mm
11:30 AM 68.6°F20.3°C 61.5°F16.4°C 78% 9.2 mph SSE14.8 kmh SSE 9.2 mph14.8 kmh 29.81 in1009.5 mb - 0.00 in0.0 mm 0.00 in0.0 mm
11:20 AM 67.5°F19.7°C 61.1°F16.2°C 80% 9.2 mph SSE14.8 kmh SSE 12.7 mph20.4 kmh 29.82 in1009.8 mb - 0.00 in0.0 mm 0.00 in0.0 mm
11:15 AM 66.4°F19.1°C 60.4°F15.8°C 81% 6.9 mph SSE11.1 kmh SSE 11.5 mph18.5 kmh 29.82 in1009.8 mb - 0.00 in0.0 mm 0.00 in0.0 mm
11:10 AM 65.3°F18.5°C 60.0°F15.6°C 83% 3.5 mph SSE5.6 kmh SSE 5.8 mph9.3 kmh 29.83 in1010.2 mb - 0.00 in0.0 mm 0.00 in0.0 mm
11:00 AM 63.7°F17.6°C 58.8°F14.9°C 84% 5.8 mph SE9.3 kmh SE 6.9 mph11.1 kmh 29.83 in1010.2 mb - 0.00 in0.0 mm 0.00 in0.0 mm
10:50 AM 62.5°F16.9°C 57.6°F14.2°C 84% 5.8 mph S9.3 kmh S 8.1 mph13.0 kmh 29.84 in1010.5 mb - 0.00 in0.0 mm 0.00 in0.0 mm
10:45 AM 62.1°F16.7°C 57.2°F14.0°C 84% 3.5 mph SSE5.6 kmh SSE 6.9 mph11.1 kmh 29.84 in1010.5 mb - 0.00 in0.0 mm 0.00 in0.0 mm
10:40 AM 61.7°F16.5°C 56.9°F13.8°C 84% 6.9 mph SSE11.1 kmh SSE 9.2 mph14.8 kmh 29.84 in1010.5 mb - 0.00 in0.0 mm 0.00 in0.0 mm
10:30 AM 61.2°F16.2°C 56.3°F13.5°C 84% 3.5 mph S5.6 kmh S 11.5 mph18.5 kmh 29.84 in1010.5 mb - 0.00 in0.0 mm 0.00 in0.0 mm
10:20 AM 60.7°F15.9°C 55.8°F13.2°C 84% 6.9 mph S11.1 kmh S 8.1 mph13.0 kmh 29.84 in1010.5 mb - 0.00 in0.0 mm 0.00 in0.0 mm
10:15 AM 60.7°F15.9°C 55.5°F13.1°C 83% 6.9 mph S11.1 kmh S 9.2 mph14.8 kmh 29.84 in1010.5 mb - 0.00 in0.0 mm 0.00 in0.0 mm
10:10 AM 60.7°F15.9°C 55.2°F12.9°C 82% 10.4 mph S16.7 kmh S 18.4 mph29.6 kmh 29.84 in1010.5 mb - 0.00 in0.0 mm 0.00 in0.0 mm
10:00 AM 61.3°F16.3°C 55.1°F12.8°C 80% 11.5 mph S18.5 kmh S 15.0 mph24.1 kmh 29.84 in1010.5 mb - 0.00 in0.0 mm 0.00 in0.0 mm
09:50 AM 61.2°F16.2°C 54.6°F12.6°C 79% 15.0 mph SE24.1 kmh SE 21.9 mph35.2 kmh 29.83 in1010.2 mb - 0.00 in0.0 mm 0.00 in0.0 mm
09:45 AM 61.3°F16.3°C 54.4°F12.4°C 78% 10.4 mph S16.7 kmh S 11.5 mph18.5 kmh 29.84 in1010.5 mb - 0.00 in0.0 mm 0.00 in0.0 mm
09:40 AM 61.3°F16.3°C 54.0°F12.2°C 77% 13.8 mph SSE22.2 kmh SSE 16.1 mph25.9 kmh 29.83 in1010.2 mb - 0.00 in0.0 mm 0.00 in0.0 mm
09:30 AM 61.3°F16.3°C 54.0°F12.2°C 77% 8.1 mph SSE13.0 kmh SSE 17.3 mph27.8 kmh 29.83 in1010.2 mb - 0.00 in0.0 mm 0.00 in0.0 mm
09:20 AM 61.0°F16.1°C 53.4°F11.9°C 76% 6.9 mph SE11.1 kmh SE 13.8 mph22.2 kmh 29.83 in1010.2 mb - 0.00 in0.0 mm 0.00 in0.0 mm
09:15 AM 60.8°F16.0°C 52.8°F11.6°C 75% 11.5 mph SE18.5 kmh SE 18.4 mph29.6 kmh 29.83 in1010.2 mb - 0.00 in0.0 mm 0.00 in0.0 mm
09:10 AM 60.6°F15.9°C 53.0°F11.7°C 76% 12.7 mph SE20.4 kmh SE 15.0 mph24.1 kmh 29.82 in1009.8 mb - 0.00 in0.0 mm 0.00 in0.0 mm
09:00 AM 59.9°F15.5°C 52.3°F11.3°C 76% 10.4 mph SE16.7 kmh SE 15.0 mph24.1 kmh 29.83 in1010.2 mb - 0.00 in0.0 mm 0.00 in0.0 mm
08:50 AM 59.6°F15.3°C 51.3°F10.7°C 74% 9.2 mph SE14.8 kmh SE 12.7 mph20.4 kmh 29.83 in1010.2 mb - 0.00 in0.0 mm 0.00 in0.0 mm
08:45 AM 59.1°F15.1°C 51.2°F10.7°C 75% 5.8 mph SE9.3 kmh SE 6.9 mph11.1 kmh 29.83 in1010.2 mb - 0.00 in0.0 mm 0.00 in0.0 mm
08:40 AM 59.0°F15.0°C 51.1°F10.6°C 75% 5.8 mph SE9.3 kmh SE 10.4 mph16.7 kmh 29.83 in1010.2 mb - 0.00 in0.0 mm 0.00 in0.0 mm
08:30 AM 58.1°F14.5°C 50.2°F10.1°C 75% 8.1 mph SE13.0 kmh SE 12.7 mph20.4 kmh 29.83 in1010.2 mb - 0.00 in0.0 mm 0.00 in0.0 mm
08:20 AM 57.3°F14.1°C 49.8°F9.9°C 76% 4.6 mph SE7.4 kmh SE 6.9 mph11.1 kmh 29.83 in1010.2 mb - 0.00 in0.0 mm 0.00 in0.0 mm
08:15 AM 57.0°F13.9°C 49.5°F9.7°C 76% 5.8 mph SE9.3 kmh SE 8.1 mph13.0 kmh 29.82 in1009.8 mb - 0.00 in0.0 mm 0.00 in0.0 mm
08:10 AM 56.7°F13.7°C 49.6°F9.8°C 77% 5.8 mph SE9.3 kmh SE 8.1 mph13.0 kmh 29.82 in1009.8 mb - 0.00 in0.0 mm 0.00 in0.0 mm
08:00 AM 56.2°F13.4°C 49.1°F9.5°C 77% 4.6 mph SE7.4 kmh SE 5.8 mph9.3 kmh 29.82 in1009.8 mb - 0.00 in0.0 mm 0.00 in0.0 mm
07:50 AM 55.7°F13.2°C 48.9°F9.4°C 78% 3.5 mph SE5.6 kmh SE 6.9 mph11.1 kmh 29.81 in1009.5 mb - 0.00 in0.0 mm 0.00 in0.0 mm
07:45 AM 55.4°F13.0°C 49.0°F9.4°C 79% 4.6 mph SE7.4 kmh SE 5.8 mph9.3 kmh 29.82 in1009.8 mb - 0.00 in0.0 mm 0.00 in0.0 mm
07:40 AM 55.3°F12.9°C 48.9°F9.4°C 79% 3.5 mph SE5.6 kmh SE 5.8 mph9.3 kmh 29.81 in1009.5 mb - 0.00 in0.0 mm 0.00 in0.0 mm
07:30 AM 55.2°F12.9°C 48.8°F9.3°C 79% 2.3 mph SE3.7 kmh SE 4.6 mph7.4 kmh 29.81 in1009.5 mb - 0.00 in0.0 mm 0.00 in0.0 mm
07:20 AM 54.9°F12.7°C 48.9°F9.4°C 80% 3.5 mph SE5.6 kmh SE 4.6 mph7.4 kmh 29.81 in1009.5 mb - 0.00 in0.0 mm 0.00 in0.0 mm
07:15 AM 54.8°F12.7°C 48.7°F9.3°C 80% 3.5 mph SE5.6 kmh SE 5.8 mph9.3 kmh 29.81 in1009.5 mb - 0.00 in0.0 mm 0.00 in0.0 mm
07:10 AM 54.4°F12.4°C 48.7°F9.3°C 81% 2.3 mph SE3.7 kmh SE 4.6 mph7.4 kmh 29.81 in1009.5 mb - 0.00 in0.0 mm 0.00 in0.0 mm
07:00 AM 53.5°F11.9°C 48.1°F8.9°C 82% 2.3 mph SE3.7 kmh SE 6.9 mph11.1 kmh 29.81 in1009.5 mb - 0.00 in0.0 mm 0.00 in0.0 mm
06:50 AM 52.8°F11.6°C 47.5°F8.6°C 82% 1.2 mph SE1.9 kmh SE 4.6 mph7.4 kmh 29.82 in1009.8 mb - 0.00 in0.0 mm 0.00 in0.0 mm
06:45 AM 53.0°F11.7°C 48.0°F8.9°C 83% 1.2 mph SE1.9 kmh SE 3.5 mph5.6 kmh 29.82 in1009.8 mb - 0.00 in0.0 mm 0.00 in0.0 mm
06:40 AM 52.8°F11.6°C 47.8°F8.8°C 83% 2.3 mph SE3.7 kmh SE 6.9 mph11.1 kmh 29.81 in1009.5 mb - 0.00 in0.0 mm 0.00 in0.0 mm
06:30 AM 51.7°F10.9°C 47.6°F8.7°C 86% 1.2 mph SE1.9 kmh SE 2.3 mph3.7 kmh 29.81 in1009.5 mb - 0.00 in0.0 mm 0.00 in0.0 mm
06:20 AM 49.8°F9.9°C 46.4°F8.0°C 88% 2.3 mph SE3.7 kmh SE 3.5 mph5.6 kmh 29.82 in1009.8 mb - 0.00 in0.0 mm 0.00 in0.0 mm
06:15 AM 49.0°F9.4°C 45.6°F7.6°C 88% Calm Calm 1.2 mph1.9 kmh 29.82 in1009.8 mb - 0.00 in0.0 mm 0.00 in0.0 mm
06:10 AM 48.3°F9.1°C 44.9°F7.2°C 88% Calm Calm -- 29.82 in1009.8 mb - 0.00 in0.0 mm 0.00 in0.0 mm
06:00 AM 47.8°F8.8°C 43.8°F6.6°C 86% Calm Calm -- 29.82 in1009.8 mb - 0.00 in0.0 mm 0.00 in0.0 mm
05:50 AM 48.1°F8.9°C 43.8°F6.6°C 85% Calm Calm -- 29.82 in1009.8 mb - 0.00 in0.0 mm 0.00 in0.0 mm
05:45 AM 48.3°F9.1°C 43.7°F6.5°C 84% Calm Calm -- 29.82 in1009.8 mb - 0.00 in0.0 mm 0.00 in0.0 mm
05:40 AM 48.6°F9.2°C 44.0°F6.7°C 84% Calm Calm -- 29.82 in1009.8 mb - 0.00 in0.0 mm 0.00 in0.0 mm
05:30 AM 49.4°F9.7°C 43.8°F6.6°C 81% Calm Calm -- 29.81 in1009.5 mb - 0.00 in0.0 mm 0.00 in0.0 mm
05:20 AM 50.8°F10.4°C 44.8°F7.1°C 80% Calm Calm -- 29.81 in1009.5 mb - 0.00 in0.0 mm 0.00 in0.0 mm
05:15 AM 51.5°F10.8°C 45.5°F7.5°C 80% Calm Calm -- 29.81 in1009.5 mb - 0.00 in0.0 mm 0.00 in0.0 mm
05:10 AM 52.1°F11.2°C 45.8°F7.7°C 79% Calm Calm -- 29.81 in1009.5 mb - 0.00 in0.0 mm 0.00 in0.0 mm
05:00 AM 52.9°F11.6°C 46.6°F8.1°C 79% Calm Calm -- 29.81 in1009.5 mb - 0.00 in0.0 mm 0.00 in0.0 mm
04:50 AM 53.9°F12.2°C 47.2°F8.4°C 78% Calm Calm -- 29.81 in1009.5 mb - 0.00 in0.0 mm 0.00 in0.0 mm
04:45 AM 54.1°F12.3°C 47.4°F8.6°C 78% Calm Calm -- 29.81 in1009.5 mb - 0.00 in0.0 mm 0.00 in0.0 mm
04:40 AM 54.1°F12.3°C 47.4°F8.6°C 78% Calm Calm 1.2 mph1.9 kmh 29.81 in1009.5 mb - 0.00 in0.0 mm 0.00 in0.0 mm
04:30 AM 54.3°F12.4°C 47.6°F8.7°C 78% Calm Calm 1.2 mph1.9 kmh 29.81 in1009.5 mb - 0.00 in0.0 mm 0.00 in0.0 mm
04:20 AM 54.6°F12.6°C 47.5°F8.6°C 77% Calm Calm 1.2 mph1.9 kmh 29.82 in1009.8 mb - 0.00 in0.0 mm 0.00 in0.0 mm
04:15 AM 54.7°F12.6°C 47.7°F8.7°C 77% Calm Calm 1.2 mph1.9 kmh 29.82 in1009.8 mb - 0.00 in0.0 mm 0.00 in0.0 mm
04:10 AM 54.8°F12.7°C 47.7°F8.7°C 77% 1.2 mph SSE1.9 kmh SSE 2.3 mph3.7 kmh 29.82 in1009.8 mb - 0.00 in0.0 mm 0.00 in0.0 mm
04:00 AM 54.8°F12.7°C 48.1°F8.9°C 78% 2.3 mph SSE3.7 kmh SSE 4.6 mph7.4 kmh 29.83 in1010.2 mb - 0.00 in0.0 mm 0.00 in0.0 mm
03:50 AM 54.3°F12.4°C 48.0°F8.9°C 79% 2.3 mph SE3.7 kmh SE 3.5 mph5.6 kmh 29.83 in1010.2 mb - 0.00 in0.0 mm 0.00 in0.0 mm
03:45 AM 54.1°F12.3°C 48.1°F8.9°C 80% 1.2 mph SE1.9 kmh SE 4.6 mph7.4 kmh 29.83 in1010.2 mb - 0.00 in0.0 mm 0.00 in0.0 mm
03:40 AM 53.8°F12.1°C 48.1°F8.9°C 81% 2.3 mph SSE3.7 kmh SSE 5.8 mph9.3 kmh 29.84 in1010.5 mb - 0.00 in0.0 mm 0.00 in0.0 mm
03:30 AM 52.8°F11.6°C 47.7°F8.7°C 83% 2.3 mph SE3.7 kmh SE 3.5 mph5.6 kmh 29.84 in1010.5 mb - 0.00 in0.0 mm 0.00 in0.0 mm
03:20 AM 51.3°F10.7°C 47.3°F8.5°C 86% 1.2 mph SE1.9 kmh SE 4.6 mph7.4 kmh 29.84 in1010.5 mb - 0.00 in0.0 mm 0.00 in0.0 mm
03:15 AM 50.6°F10.3°C 46.8°F8.2°C 87% 1.2 mph SE1.9 kmh SE 2.3 mph3.7 kmh 29.85 in1010.8 mb - 0.00 in0.0 mm 0.00 in0.0 mm
03:10 AM 50.0°F10.0°C 46.2°F7.9°C 87% 1.2 mph SE1.9 kmh SE 2.3 mph3.7 kmh 29.85 in1010.8 mb - 0.00 in0.0 mm 0.00 in0.0 mm
03:00 AM 48.9°F9.4°C 44.9°F7.2°C 86% Calm Calm 1.2 mph1.9 kmh 29.85 in1010.8 mb - 0.00 in0.0 mm 0.00 in0.0 mm
02:50 AM 49.6°F9.8°C 45.9°F7.7°C 87% 1.2 mph SE1.9 kmh SE 1.2 mph1.9 kmh 29.85 in1010.8 mb - 0.00 in0.0 mm 0.00 in0.0 mm
02:45 AM 49.6°F9.8°C 45.9°F7.7°C 87% Calm Calm -- 29.85 in1010.8 mb - 0.00 in0.0 mm 0.00 in0.0 mm
02:40 AM 49.4°F9.7°C 46.0°F7.8°C 88% Calm Calm -- 29.85 in1010.8 mb - 0.00 in0.0 mm 0.00 in0.0 mm
02:30 AM 48.4°F9.1°C 44.7°F7.1°C 87% 1.2 mph SE1.9 kmh SE 1.2 mph1.9 kmh 29.85 in1010.8 mb - 0.00 in0.0 mm 0.00 in0.0 mm
02:20 AM 48.1°F8.9°C 44.1°F6.7°C 86% Calm Calm 1.2 mph1.9 kmh 29.85 in1010.8 mb - 0.00 in0.0 mm 0.00 in0.0 mm
02:15 AM 48.4°F9.1°C 44.1°F6.7°C 85% 1.2 mph ESE1.9 kmh ESE 2.3 mph3.7 kmh 29.86 in1011.2 mb - 0.00 in0.0 mm 0.00 in0.0 mm
02:10 AM 48.8°F9.3°C 44.5°F6.9°C 85% Calm Calm 3.5 mph5.6 kmh 29.85 in1010.8 mb - 0.00 in0.0 mm 0.00 in0.0 mm
02:00 AM 49.2°F9.6°C 44.6°F7.0°C 84% Calm Calm -- 29.85 in1010.8 mb - 0.00 in0.0 mm 0.00 in0.0 mm
01:50 AM 49.9°F9.9°C 45.6°F7.6°C 85% Calm Calm -- 29.85 in1010.8 mb - 0.00 in0.0 mm 0.00 in0.0 mm
01:40 AM 49.9°F9.9°C 45.6°F7.6°C 85% Calm Calm -- 29.85 in1010.8 mb - 0.00 in0.0 mm 0.00 in0.0 mm
01:30 AM 50.0°F10.0°C 45.4°F7.4°C 84% Calm Calm -- 29.85 in1010.8 mb - 0.00 in0.0 mm 0.00 in0.0 mm
01:20 AM 50.4°F10.2°C 45.5°F7.5°C 83% Calm Calm -- 29.86 in1011.2 mb - 0.00 in0.0 mm 0.00 in0.0 mm
01:15 AM 50.6°F10.3°C 45.3°F7.4°C 82% Calm Calm -- 29.86 in1011.2 mb - 0.00 in0.0 mm 0.00 in0.0 mm
01:10 AM 50.9°F10.5°C 45.3°F7.4°C 81% Calm Calm -- 29.86 in1011.2 mb - 0.00 in0.0 mm 0.00 in0.0 mm
01:00 AM 51.5°F10.8°C 45.5°F7.5°C 80% Calm Calm -- 29.86 in1011.2 mb - 0.00 in0.0 mm 0.00 in0.0 mm
12:50 AM 52.1°F11.2°C 45.8°F7.7°C 79% Calm Calm -- 29.87 in1011.5 mb - 0.00 in0.0 mm 0.00 in0.0 mm
12:45 AM 52.5°F11.4°C 45.8°F7.7°C 78% Calm Calm -- 29.86 in1011.2 mb - 0.00 in0.0 mm 0.00 in0.0 mm
12:40 AM 52.9°F11.6°C 46.2°F7.9°C 78% Calm Calm -- 29.87 in1011.5 mb - 0.00 in0.0 mm 0.00 in0.0 mm
12:30 AM 53.7°F12.1°C 46.3°F7.9°C 76% Calm Calm -- 29.87 in1011.5 mb - 0.00 in0.0 mm 0.00 in0.0 mm
12:20 AM 54.5°F12.5°C 46.4°F8.0°C 74% Calm Calm -- 29.86 in1011.2 mb - 0.00 in0.0 mm 0.00 in0.0 mm
12:15 AM 55.1°F12.8°C 46.6°F8.1°C 73% Calm Calm -- 29.86 in1011.2 mb - 0.00 in0.0 mm 0.00 in0.0 mm
12:10 AM 55.6°F13.1°C 47.0°F8.3°C 73% Calm Calm -- 29.86 in1011.2 mb - 0.00 in0.0 mm 0.00 in0.0 mm
12:00 AM 55.9°F13.3°C 47.4°F8.6°C 73% Calm Calm 2.3 mph3.7 kmh 29.87 in1011.5 mb - 0.00 in0.0 mm 0.00 in0.0 mm